Details for BMI Regional at EGNT




Go Back


Latest METAR
Local Time

EGNT 280120Z 04004KT 3100 BR OVC002 12/12 Q1021

28/05/2018, 02:29:02

Description
Results
BMI Regional Logo
Number of Pilots based at EGNT
1 Pilots Based here
Number of BMI Regional Flights Departed from EGNT
0 Flights Departed
Number of BMI Regional Flights Arrived at EGNT
0 Flights Arrived
Number of BMI Regional Schedules Departing from EGNT
3 Schedules
Number of BMI Regional Schedules Arriving at EGNT
3 Schedules
Number of BMI Regional Schedules Departing from EGNT availible today
3 Schedules Today
Number of BMI Regional Schedules Arriving at EGNT availible today
3 Schedules Today
Average Landing Rate at EGNT
-264 fpm
BMI Regional Average Landing Rate at EGNT
0 fpm
Total Fuel Purchased at EGNT by BMI Regional
0.00 kgs / 0.00 lbs

Pilots Based at EGNT


Pilot ID
Pilot Name
Pilot Rank
No. of Flights
No. of Flying Hours
Michael Gow
119
366.46
Content